createdAt,value
2019-03-16T12:05:07.887Z,74.60
2019-03-16T12:10:13.711Z,74.60
2019-03-16T12:15:18.843Z,73.80
2019-03-16T12:20:24.816Z,69.00
2019-03-16T12:25:30.128Z,67.30
2019-03-16T12:30:35.654Z,68.10
2019-03-16T12:35:41.029Z,66.50
2019-03-16T12:40:46.422Z,66.60
2019-03-16T12:45:51.477Z,67.50
2019-03-16T12:50:56.829Z,68.10
2019-03-16T12:56:01.930Z,66.30
2019-03-16T13:01:06.397Z,63.10
2019-03-16T13:06:10.646Z,63.30
2019-03-16T13:11:14.939Z,64.60
2019-03-16T13:16:19.537Z,64.30
2019-03-16T13:21:23.106Z,65.00
2019-03-16T13:26:26.618Z,65.40
2019-03-16T13:31:32.758Z,60.90
2019-03-16T13:36:37.222Z,61.60
2019-03-16T13:41:41.729Z,63.80
2019-03-16T13:46:46.533Z,65.40
2019-03-16T13:51:51.040Z,64.60
2019-03-16T13:56:57.121Z,63.50
2019-03-16T14:02:01.415Z,62.60
2019-03-16T14:07:06.806Z,60.70
2019-03-16T14:12:11.363Z,58.10
2019-03-16T14:17:16.074Z,59.00
2019-03-16T14:22:20.483Z,58.90
2019-03-16T14:27:25.194Z,59.90
2019-03-16T14:32:30.516Z,59.60
2019-03-16T14:37:35.624Z,59.70
2019-03-16T14:42:41.117Z,60.30
2019-03-16T14:47:46.475Z,60.10
2019-03-16T14:52:51.890Z,57.70
2019-03-16T14:57:57.176Z,56.40
2019-03-16T15:03:04.392Z,56.20
2019-03-16T15:08:10.193Z,57.10
2019-03-16T15:13:15.743Z,55.40
2019-03-16T15:18:21.170Z,55.50
2019-03-16T15:23:26.679Z,55.80
2019-03-16T15:28:31.762Z,55.10
2019-03-16T15:33:37.568Z,54.50
2019-03-16T15:38:43.019Z,54.40
2019-03-16T15:43:48.224Z,54.70
2019-03-16T15:48:53.583Z,55.20
2019-03-16T15:53:58.399Z,55.10
2019-03-16T15:59:03.885Z,54.30
2019-03-16T16:04:09.943Z,54.60
2019-03-16T16:09:15.001Z,55.50
2019-03-16T16:14:20.449Z,55.10
2019-03-16T16:19:26.300Z,55.10
2019-03-16T16:24:31.427Z,55.00
2019-03-16T16:29:36.817Z,55.40
2019-03-16T16:34:42.118Z,55.80
2019-03-16T16:39:47.791Z,55.30
2019-03-16T16:44:52.971Z,55.20
2019-03-16T16:49:58.144Z,55.90
2019-03-16T16:55:03.618Z,55.70
2019-03-16T17:00:12.176Z,56.20
2019-03-16T17:05:18.125Z,56.70
2019-03-16T17:10:23.286Z,56.80
2019-03-16T17:15:29.142Z,57.70
2019-03-16T17:20:32.771Z,57.40
2019-03-16T17:25:37.640Z,58.00
2019-03-16T17:30:43.185Z,58.10
2019-03-16T17:35:48.153Z,57.40
2019-03-16T17:40:53.703Z,57.00
2019-03-16T17:45:59.770Z,57.70
2019-03-16T17:51:04.275Z,57.50
2019-03-16T17:56:08.037Z,57.90
2019-03-16T18:01:11.959Z,57.50
2019-03-16T18:06:16.278Z,58.10
2019-03-16T18:11:20.500Z,57.90
2019-03-16T18:16:24.731Z,58.00
2019-03-16T18:21:28.764Z,58.60
2019-03-16T18:26:33.134Z,58.70
2019-03-16T18:31:37.397Z,58.70
2019-03-16T18:36:41.988Z,58.10
2019-03-16T18:41:48.265Z,58.20
2019-03-16T18:46:53.982Z,58.90
2019-03-16T18:51:58.213Z,59.20
2019-03-16T18:57:03.039Z,59.50
2019-03-16T19:02:19.877Z,59.40
2019-03-16T19:07:13.628Z,59.60
2019-03-16T19:12:18.716Z,59.60
2019-03-16T19:17:24.372Z,59.60
2019-03-16T19:22:29.799Z,59.80
2019-03-16T19:27:35.319Z,60.10
2019-03-16T19:32:40.545Z,60.30
2019-03-16T19:37:45.926Z,60.60
2019-03-16T19:42:51.071Z,61.00
2019-03-16T19:47:56.767Z,61.60
